createdAt,value
2022-11-09T00:00:15.440Z,2.57
2022-11-09T00:01:17.792Z,4.54
2022-11-09T00:02:20.028Z,4.34
2022-11-09T00:03:22.487Z,4.81
2022-11-09T00:04:25.084Z,2.69
2022-11-09T00:05:27.329Z,3.54
2022-11-09T00:06:29.687Z,5.13
2022-11-09T00:07:31.955Z,5.22
2022-11-09T00:08:34.183Z,3.83
2022-11-09T00:09:36.622Z,4.65
2022-11-09T00:10:42.207Z,5.23
2022-11-09T00:11:44.417Z,3.59
2022-11-09T00:12:46.609Z,2.65
2022-11-09T00:13:48.846Z,2.71
2022-11-09T00:14:51.043Z,3.02
2022-11-09T00:15:53.321Z,3.28
2022-11-09T00:16:55.562Z,3.61
2022-11-09T00:17:57.852Z,3.87
2022-11-09T00:19:00.091Z,3.33
2022-11-09T00:20:02.569Z,3.96
2022-11-09T00:21:05.250Z,2.44
2022-11-09T00:22:07.723Z,3.05
2022-11-09T00:23:10.129Z,2.81
2022-11-09T00:24:12.340Z,3.20
2022-11-09T00:25:15.116Z,3.22
2022-11-09T00:26:17.350Z,3.84
2022-11-09T00:27:19.549Z,4.11
2022-11-09T00:28:22.004Z,3.06
2022-11-09T00:29:24.241Z,4.43
2022-11-09T00:30:26.597Z,2.56
2022-11-09T00:31:29.067Z,3.53
2022-11-09T00:32:31.529Z,3.59
2022-11-09T00:33:33.987Z,2.88
2022-11-09T00:34:36.461Z,4.74
2022-11-09T00:35:39.126Z,1.76
2022-11-09T00:36:41.587Z,4.02
2022-11-09T00:37:43.912Z,4.55
2022-11-09T00:38:46.491Z,2.65
2022-11-09T00:39:48.736Z,2.99
2022-11-09T00:40:51.071Z,3.67
2022-11-09T00:41:53.433Z,2.53
2022-11-09T00:42:55.650Z,4.13
2022-11-09T00:43:57.972Z,4.52
2022-11-09T00:45:00.313Z,3.67
2022-11-09T00:46:02.610Z,4.33
2022-11-09T00:47:05.326Z,3.19
2022-11-09T00:48:07.788Z,3.65
2022-11-09T00:49:10.307Z,3.44
2022-11-09T00:50:13.056Z,2.58
2022-11-09T00:51:15.552Z,4.05
2022-11-09T00:52:18.004Z,4.29
2022-11-09T00:53:21.217Z,4.44
2022-11-09T00:54:23.932Z,2.60
2022-11-09T00:55:26.208Z,4.22
2022-11-09T00:56:28.666Z,4.84
2022-11-09T00:57:31.097Z,2.05
2022-11-09T00:58:33.445Z,2.90
2022-11-09T00:59:35.900Z,1.86
2022-11-09T01:00:38.217Z,2.92
2022-11-09T01:01:40.880Z,2.77
2022-11-09T01:02:43.330Z,3.45
2022-11-09T01:03:45.788Z,2.35
2022-11-09T01:04:48.055Z,2.61
2022-11-09T01:05:50.418Z,1.89
2022-11-09T01:06:52.759Z,2.98
2022-11-09T01:07:55.087Z,3.06
2022-11-09T01:08:57.384Z,2.73
2022-11-09T01:09:59.612Z,2.62
2022-11-09T01:11:01.810Z,2.92
2022-11-09T01:12:04.254Z,2.47
2022-11-09T01:13:06.527Z,2.18
2022-11-09T01:14:08.983Z,4.30
2022-11-09T01:15:11.427Z,3.43
2022-11-09T01:16:13.918Z,3.39
2022-11-09T01:17:16.558Z,2.64
2022-11-09T01:18:19.117Z,3.06
2022-11-09T01:19:21.334Z,3.02
2022-11-09T01:20:23.598Z,4.16
2022-11-09T01:21:26.043Z,3.82
2022-11-09T01:22:28.578Z,3.79
2022-11-09T01:23:31.127Z,3.26
2022-11-09T01:24:33.636Z,3.51
2022-11-09T01:25:36.151Z,2.41
2022-11-09T01:26:38.390Z,2.34
2022-11-09T01:27:40.855Z,2.39
2022-11-09T01:28:43.376Z,2.73
2022-11-09T01:29:46.031Z,3.04
2022-11-09T01:30:48.608Z,3.24
2022-11-09T01:31:51.078Z,3.12
2022-11-09T01:32:53.472Z,3.01
2022-11-09T01:33:55.752Z,2.91
2022-11-09T01:34:58.107Z,2.52
2022-11-09T01:36:00.412Z,2.52
2022-11-09T01:37:02.612Z,2.41
2022-11-09T01:38:05.072Z,4.97
2022-11-09T01:39:07.547Z,4.34
2022-11-09T01:40:09.755Z,3.72
2022-11-09T01:41:11.973Z,3.93
2022-11-09T01:42:14.685Z,2.66
2022-11-09T01:43:17.801Z,4.31
2022-11-09T01:44:20.303Z,3.04
2022-11-09T01:45:22.584Z,2.77
2022-11-09T01:46:24.943Z,2.65
2022-11-09T01:47:27.205Z,2.91
2022-11-09T01:48:29.447Z,2.07
2022-11-09T01:49:31.745Z,3.58
2022-11-09T01:50:33.983Z,3.85
2022-11-09T01:51:36.250Z,1.82
2022-11-09T01:52:38.526Z,2.70
2022-11-09T01:53:40.735Z,3.17
2022-11-09T01:54:42.934Z,2.97
2022-11-09T01:55:45.168Z,2.85
2022-11-09T01:56:47.692Z,2.88
2022-11-09T01:57:49.894Z,1.77
2022-11-09T01:58:52.362Z,2.88
2022-11-09T01:59:54.591Z,2.15
2022-11-09T02:00:57.012Z,3.55
2022-11-09T02:01:59.395Z,2.55
2022-11-09T02:03:02.012Z,2.16
2022-11-09T02:04:04.465Z,2.67
2022-11-09T02:05:06.704Z,3.32
2022-11-09T02:06:08.909Z,2.49
2022-11-09T02:07:11.237Z,5.41
2022-11-09T02:08:13.814Z,2.15
2022-11-09T02:09:16.329Z,4.45
2022-11-09T02:10:18.572Z,3.02
2022-11-09T02:11:21.176Z,3.74
2022-11-09T02:12:23.864Z,3.85
2022-11-09T02:13:26.530Z,3.47
2022-11-09T02:14:28.999Z,3.94
2022-11-09T02:15:31.443Z,3.33
2022-11-09T02:16:33.909Z,2.42
2022-11-09T02:17:37.548Z,2.83
2022-11-09T02:18:40.017Z,1.72
2022-11-09T02:19:43.071Z,2.33
2022-11-09T02:20:45.684Z,5.11
2022-11-09T02:21:47.940Z,4.14
2022-11-09T02:22:50.268Z,2.28
2022-11-09T02:23:52.751Z,3.11
2022-11-09T02:24:56.543Z,2.22
2022-11-09T02:25:58.874Z,3.77
2022-11-09T02:27:01.265Z,2.78
2022-11-09T02:28:03.522Z,2.73
2022-11-09T02:29:06.042Z,2.88
2022-11-09T02:30:08.754Z,2.52
2022-11-09T02:31:11.002Z,3.09
2022-11-09T02:32:13.241Z,2.12
2022-11-09T02:33:15.631Z,3.51
2022-11-09T02:34:18.035Z,3.33
2022-11-09T02:35:20.363Z,3.07
2022-11-09T02:36:22.588Z,2.89
2022-11-09T02:37:24.810Z,4.89
2022-11-09T02:38:27.024Z,2.58
2022-11-09T02:39:29.263Z,2.74
2022-11-09T02:40:31.784Z,3.08
2022-11-09T02:41:34.045Z,5.68
2022-11-09T02:42:36.326Z,3.11
2022-11-09T02:43:38.606Z,2.09
2022-11-09T02:44:41.046Z,3.07
2022-11-09T02:45:43.333Z,3.44
2022-11-09T02:46:45.521Z,2.04
2022-11-09T02:47:47.721Z,2.19
2022-11-09T02:48:50.229Z,3.18
2022-11-09T02:49:52.643Z,2.36
2022-11-09T02:50:54.985Z,5.43
2022-11-09T02:51:57.286Z,1.92
2022-11-09T02:52:59.502Z,2.22
2022-11-09T02:54:01.791Z,1.66
2022-11-09T02:55:04.184Z,1.17
2022-11-09T02:56:07.810Z,2.25
2022-11-09T02:57:10.316Z,3.46
2022-11-09T02:58:12.612Z,2.50
2022-11-09T02:59:15.025Z,4.26
2022-11-09T03:00:17.484Z,5.07
2022-11-09T03:01:20.168Z,3.28
2022-11-09T03:02:22.847Z,3.45
2022-11-09T03:03:25.410Z,2.28
2022-11-09T03:04:27.900Z,2.01
2022-11-09T03:05:30.533Z,4.15
2022-11-09T03:06:32.938Z,3.77
2022-11-09T03:07:35.196Z,3.73
2022-11-09T03:08:37.693Z,3.41
2022-11-09T03:09:40.018Z,3.29
2022-11-09T03:10:42.486Z,3.04
2022-11-09T03:11:44.988Z,1.89
2022-11-09T03:12:47.267Z,1.56
2022-11-09T03:13:49.533Z,3.66
2022-11-09T03:14:51.786Z,1.47
2022-11-09T03:15:54.051Z,3.08
2022-11-09T03:16:56.288Z,4.46
2022-11-09T03:17:58.553Z,2.37
2022-11-09T03:19:00.767Z,1.88
2022-11-09T03:20:03.030Z,2.67
2022-11-09T03:21:05.310Z,3.46
2022-11-09T03:22:07.803Z,2.72
2022-11-09T03:23:10.073Z,4.08
2022-11-09T03:24:12.650Z,2.03
2022-11-09T03:25:15.164Z,0.95
2022-11-09T03:26:17.677Z,1.90
2022-11-09T03:27:20.582Z,2.92
2022-11-09T03:28:22.835Z,1.75
2022-11-09T03:29:25.110Z,2.06
2022-11-09T03:30:27.709Z,1.77
2022-11-09T03:31:30.194Z,2.88
2022-11-09T03:32:32.877Z,3.84
2022-11-09T03:33:35.408Z,3.58
2022-11-09T03:34:37.649Z,1.53
2022-11-09T03:35:40.054Z,1.86
2022-11-09T03:36:42.494Z,1.72
2022-11-09T03:37:44.977Z,3.04
2022-11-09T03:38:47.546Z,2.48
2022-11-09T03:39:50.093Z,2.34
2022-11-09T03:40:52.600Z,4.86
2022-11-09T03:41:54.851Z,1.89
2022-11-09T03:42:57.246Z,1.68
2022-11-09T03:43:59.516Z,2.32
2022-11-09T03:45:01.757Z,2.89
2022-11-09T03:46:03.997Z,2.70
2022-11-09T03:47:06.279Z,2.82
2022-11-09T03:48:09.029Z,2.65
2022-11-09T03:49:11.288Z,3.95
2022-11-09T03:50:13.554Z,1.46
2022-11-09T03:51:15.806Z,1.66
2022-11-09T03:52:18.176Z,2.67
2022-11-09T03:53:21.067Z,3.98
2022-11-09T03:54:23.526Z,1.28
2022-11-09T03:55:25.735Z,1.77
2022-11-09T03:56:27.978Z,1.17
2022-11-09T03:57:30.265Z,1.88
2022-11-09T03:58:32.559Z,1.25
2022-11-09T03:59:34.915Z,1.49
2022-11-09T04:00:37.227Z,1.65
2022-11-09T04:01:39.506Z,2.36
2022-11-09T04:02:41.891Z,2.14
2022-11-09T04:03:44.275Z,1.32
2022-11-09T04:04:46.559Z,0.95
2022-11-09T04:05:48.852Z,2.51
2022-11-09T04:06:51.141Z,2.01
2022-11-09T04:07:53.329Z,3.05
2022-11-09T04:08:55.723Z,3.16
2022-11-09T04:10:06.924Z,2.05
2022-11-09T04:11:09.142Z,1.43
2022-11-09T04:12:11.620Z,0.98
2022-11-09T04:13:13.909Z,2.39
2022-11-09T04:14:19.530Z,1.19
2022-11-09T04:15:21.754Z,1.06
2022-11-09T04:16:24.031Z,1.85
2022-11-09T04:17:26.287Z,1.77
2022-11-09T04:18:28.494Z,1.39
2022-11-09T04:19:30.764Z,2.32
2022-11-09T04:20:33.138Z,0.82
2022-11-09T04:21:35.373Z,1.02
2022-11-09T04:22:37.668Z,0.85
2022-11-09T04:23:39.971Z,1.52
2022-11-09T04:24:42.575Z,2.30
2022-11-09T04:25:52.491Z,1.17
2022-11-09T04:26:54.722Z,1.48
2022-11-09T04:27:57.007Z,1.47
2022-11-09T04:28:59.376Z,1.84
2022-11-09T04:30:02.046Z,1.86
2022-11-09T04:31:04.356Z,1.56
2022-11-09T04:32:06.577Z,1.70
2022-11-09T04:33:08.864Z,2.19
2022-11-09T04:34:11.520Z,1.65
2022-11-09T04:35:14.114Z,2.52
2022-11-09T04:36:16.609Z,2.34
2022-11-09T04:37:19.190Z,1.91
2022-11-09T04:38:21.510Z,2.63
2022-11-09T04:39:23.987Z,2.05
2022-11-09T04:40:26.780Z,1.76
2022-11-09T04:41:29.919Z,1.47
2022-11-09T04:42:49.847Z,2.27
2022-11-09T04:43:52.056Z,1.72
2022-11-09T04:44:54.358Z,1.74
2022-11-09T04:45:56.666Z,3.08
2022-11-09T04:47:00.181Z,2.82
2022-11-09T04:48:02.585Z,1.85
2022-11-09T04:49:08.034Z,3.03
2022-11-09T04:50:12.323Z,3.02
2022-11-09T04:51:14.876Z,4.02
2022-11-09T04:52:17.159Z,3.33
2022-11-09T04:53:23.439Z,2.39
2022-11-09T04:54:42.645Z,2.61
2022-11-09T04:55:51.123Z,1.97
2022-11-09T04:56:53.906Z,1.96
2022-11-09T05:00:38.787Z,2.98
2022-11-09T05:01:41.084Z,2.89
2022-11-09T05:02:46.837Z,1.94
2022-11-09T05:03:49.305Z,1.24
2022-11-09T05:04:51.643Z,1.52
2022-11-09T05:05:54.042Z,2.13
2022-11-09T05:06:56.350Z,3.72
2022-11-09T05:07:58.828Z,2.13
2022-11-09T05:09:01.091Z,2.14
2022-11-09T05:10:08.268Z,2.32
2022-11-09T05:11:20.276Z,2.85
2022-11-09T05:12:45.613Z,2.52
2022-11-09T05:16:37.567Z,1.87
2022-11-09T05:17:39.907Z,2.65
2022-11-09T05:20:07.523Z,3.75
2022-11-09T05:22:30.617Z,2.45
2022-11-09T05:24:53.171Z,3.24
2022-11-09T05:25:55.462Z,3.03
2022-11-09T05:27:03.199Z,2.74
2022-11-09T05:28:06.822Z,2.28
2022-11-09T05:30:29.921Z,3.15
2022-11-09T05:32:56.679Z,1.92
2022-11-09T05:33:59.191Z,2.45
2022-11-09T05:35:11.141Z,3.88
2022-11-09T05:41:17.933Z,2.61
2022-11-09T05:47:47.321Z,2.78
2022-11-09T05:50:14.915Z,2.60
2022-11-09T05:51:19.583Z,2.14
2022-11-09T05:53:46.396Z,3.03
2022-11-09T05:54:46.814Z,3.49
2022-11-09T05:55:50.448Z,3.23
2022-11-09T05:56:55.815Z,2.43
2022-11-09T05:59:18.457Z,2.44
2022-11-09T06:03:01.489Z,3.01
2022-11-09T06:04:08.218Z,1.56
2022-11-09T06:05:13.343Z,2.23
2022-11-09T06:07:37.643Z,3.19
2022-11-09T06:10:01.632Z,2.93
2022-11-09T06:11:03.937Z,4.09
2022-11-09T06:13:28.811Z,2.44
2022-11-09T06:15:51.385Z,3.47
2022-11-09T06:16:54.071Z,3.23
2022-11-09T06:17:57.660Z,4.28
2022-11-09T06:19:10.557Z,5.07
2022-11-09T06:21:34.634Z,3.55
2022-11-09T06:23:58.601Z,3.98
2022-11-09T06:27:44.111Z,2.45
2022-11-09T06:29:03.647Z,2.90
2022-11-09T06:30:06.088Z,2.30
2022-11-09T06:31:08.453Z,2.79
2022-11-09T06:32:19.588Z,1.99
2022-11-09T06:33:25.422Z,2.16
2022-11-09T06:34:27.894Z,2.42
2022-11-09T06:35:30.215Z,1.67
2022-11-09T06:39:17.051Z,2.60
2022-11-09T06:44:39.711Z,2.11
2022-11-09T06:45:56.681Z,2.55
2022-11-09T06:49:51.495Z,2.72
2022-11-09T06:50:53.933Z,2.40
2022-11-09T06:52:01.166Z,2.51
2022-11-09T06:53:03.573Z,2.48
2022-11-09T06:55:26.382Z,3.05
2022-11-09T06:56:44.820Z,3.13
2022-11-09T06:57:47.294Z,4.14
2022-11-09T07:00:10.057Z,2.94
2022-11-09T07:01:12.753Z,2.76
2022-11-09T07:02:15.324Z,1.58
2022-11-09T07:03:18.349Z,2.12
2022-11-09T07:04:21.017Z,2.24
2022-11-09T07:06:49.487Z,3.43
2022-11-09T07:10:35.487Z,2.48
2022-11-09T07:11:37.784Z,2.32
2022-11-09T07:12:43.429Z,3.30
2022-11-09T07:16:28.451Z,2.51
2022-11-09T07:17:30.763Z,2.85
2022-11-09T07:18:42.906Z,2.27
2022-11-09T07:19:54.741Z,2.43
2022-11-09T07:20:56.975Z,3.37
2022-11-09T07:22:12.974Z,2.72
2022-11-09T07:23:15.686Z,1.75
2022-11-09T07:24:23.047Z,1.64
2022-11-09T07:25:25.432Z,2.84
2022-11-09T07:27:49.064Z,3.03
2022-11-09T07:29:00.331Z,3.00
2022-11-09T07:33:49.935Z,2.84
2022-11-09T07:38:59.607Z,2.07
2022-11-09T07:40:10.856Z,1.50
2022-11-09T07:41:13.775Z,2.60
2022-11-09T07:42:18.034Z,4.98
2022-11-09T07:43:26.516Z,2.86
2022-11-09T07:44:29.137Z,2.27
2022-11-09T07:45:31.502Z,2.31
2022-11-09T07:46:34.146Z,2.58
2022-11-09T07:47:38.250Z,2.76
2022-11-09T07:51:37.173Z,2.41
2022-11-09T07:52:46.627Z,2.27
2022-11-09T07:53:52.773Z,3.18
2022-11-09T07:55:04.656Z,2.76
2022-11-09T07:57:30.856Z,2.75
2022-11-09T07:58:38.689Z,3.32
2022-11-09T08:02:25.213Z,2.62
2022-11-09T08:07:47.030Z,2.68
2022-11-09T08:14:15.891Z,4.18
2022-11-09T08:51:34.926Z,3.34
2022-11-09T08:53:57.909Z,4.48
2022-11-09T08:59:03.429Z,3.41
2022-11-09T09:01:33.518Z,5.86
2022-11-09T09:03:57.862Z,3.95
2022-11-09T09:18:28.871Z,2.34
2022-11-09T09:19:31.958Z,4.83
2022-11-09T09:20:44.338Z,3.72
2022-11-09T09:23:16.098Z,3.49
2022-11-09T09:24:24.194Z,4.18
2022-11-09T09:25:41.339Z,4.13
2022-11-09T09:26:48.398Z,3.17
2022-11-09T09:27:59.884Z,3.38
2022-11-09T09:29:16.730Z,4.00
2022-11-09T09:30:19.959Z,4.40
2022-11-09T09:31:27.359Z,3.07
2022-11-09T09:32:31.103Z,2.87
2022-11-09T09:33:34.229Z,2.52
2022-11-09T09:34:39.129Z,3.85
2022-11-09T09:35:49.889Z,3.35
2022-11-09T09:38:13.844Z,3.51
2022-11-09T09:39:17.484Z,3.84
2022-11-09T09:40:20.311Z,2.84
2022-11-09T09:41:24.326Z,3.12
2022-11-09T09:42:33.353Z,3.79
2022-11-09T09:43:39.820Z,3.02
2022-11-09T09:44:43.210Z,3.58
2022-11-09T09:45:47.077Z,4.49
2022-11-09T09:46:59.264Z,4.92
2022-11-09T09:49:22.642Z,4.60
2022-11-09T09:50:25.991Z,3.53
2022-11-09T09:51:28.680Z,4.56
2022-11-09T09:55:08.349Z,5.54
2022-11-09T09:56:15.520Z,3.33
2022-11-09T09:57:26.358Z,5.14
2022-11-09T09:58:32.543Z,4.79
2022-11-09T09:59:35.922Z,4.19
2022-11-09T10:00:44.827Z,4.06
2022-11-09T10:01:48.423Z,3.68
2022-11-09T10:02:53.142Z,4.40
2022-11-09T10:03:56.746Z,4.91
2022-11-09T10:05:08.531Z,2.42
2022-11-09T10:06:19.723Z,4.25
2022-11-09T10:07:22.863Z,4.06
2022-11-09T10:08:28.954Z,3.42
2022-11-09T10:09:33.553Z,3.76
2022-11-09T10:10:37.746Z,3.23
2022-11-09T10:11:43.660Z,4.46
2022-11-09T10:12:46.883Z,4.76
2022-11-09T10:13:50.693Z,3.56
2022-11-09T10:16:20.179Z,3.75
2022-11-09T10:17:38.316Z,5.81
2022-11-09T10:18:44.866Z,2.57
2022-11-09T10:19:58.899Z,4.18
2022-11-09T10:25:18.964Z,3.61
2022-11-09T10:26:06.090Z,3.07
2022-11-09T10:27:05.290Z,2.68
2022-11-09T10:28:16.885Z,2.50
2022-11-09T10:29:31.239Z,1.92
2022-11-09T10:30:34.414Z,3.12
2022-11-09T10:31:38.002Z,3.87
2022-11-09T10:32:44.265Z,3.54
2022-11-09T10:33:54.927Z,2.54
2022-11-09T10:35:00.335Z,2.95
2022-11-09T10:36:13.331Z,4.63
2022-11-09T10:37:20.558Z,2.38
2022-11-09T10:38:24.489Z,3.20
2022-11-09T10:39:29.930Z,3.79
2022-11-09T10:41:54.051Z,6.62
2022-11-09T10:42:57.242Z,6.41
2022-11-09T10:45:21.370Z,3.16
2022-11-09T10:46:29.711Z,3.68
2022-11-09T10:47:32.893Z,3.75
2022-11-09T10:50:01.587Z,2.89
2022-11-09T10:51:07.430Z,3.28
2022-11-09T10:52:10.400Z,2.61
2022-11-09T10:54:36.116Z,3.55
2022-11-09T10:55:41.150Z,3.01
2022-11-09T10:57:05.453Z,3.23
2022-11-09T10:58:02.952Z,4.05
2022-11-09T10:59:11.141Z,4.15
2022-11-09T11:03:10.211Z,4.56
2022-11-09T11:04:14.677Z,2.65
2022-11-09T11:05:18.180Z,2.60
2022-11-09T11:06:21.863Z,2.32
2022-11-09T11:07:25.149Z,2.82
2022-11-09T11:08:28.709Z,3.50
2022-11-09T11:09:32.332Z,4.44
2022-11-09T11:10:35.417Z,3.12
2022-11-09T11:11:38.618Z,2.94
2022-11-09T11:12:42.196Z,2.49
2022-11-09T11:13:45.673Z,2.63
2022-11-09T11:14:48.956Z,4.27
2022-11-09T11:15:55.681Z,2.96
2022-11-09T11:16:59.016Z,3.96
2022-11-09T11:18:02.496Z,2.43
2022-11-09T11:19:05.269Z,2.62
2022-11-09T11:20:10.561Z,2.28
2022-11-09T11:21:26.249Z,4.69
2022-11-09T11:22:29.050Z,3.86
2022-11-09T11:23:32.645Z,4.80
2022-11-09T11:24:35.730Z,3.30
2022-11-09T11:25:41.069Z,3.75
2022-11-09T11:26:44.158Z,3.75
2022-11-09T11:27:51.973Z,2.25
2022-11-09T11:28:59.308Z,3.36
2022-11-09T11:31:23.282Z,2.47
2022-11-09T11:32:29.570Z,3.28
2022-11-09T11:33:32.832Z,3.34
2022-11-09T11:34:58.441Z,3.01
2022-11-09T11:35:41.436Z,4.14
2022-11-09T11:36:44.402Z,2.47
2022-11-09T11:37:48.127Z,4.52
2022-11-09T11:38:54.781Z,3.87
2022-11-09T11:39:57.648Z,4.15
2022-11-09T11:41:00.624Z,2.27
2022-11-09T11:42:03.706Z,3.58
2022-11-09T11:43:07.109Z,4.45
2022-11-09T11:44:09.967Z,5.60
2022-11-09T11:45:38.888Z,2.97
2022-11-09T11:46:17.969Z,4.81
2022-11-09T11:47:21.367Z,3.61
2022-11-09T11:48:25.350Z,3.59
2022-11-09T11:49:28.842Z,3.21
2022-11-09T11:50:32.028Z,4.62
2022-11-09T11:51:34.992Z,4.92
2022-11-09T11:52:41.292Z,2.58
2022-11-09T11:53:48.212Z,3.29
2022-11-09T11:54:51.617Z,4.32
2022-11-09T11:55:54.993Z,3.38
2022-11-09T11:56:59.113Z,4.21
2022-11-09T11:58:02.587Z,3.25
2022-11-09T11:59:05.787Z,2.15
2022-11-09T12:00:08.852Z,2.65
2022-11-09T12:01:15.511Z,3.21
2022-11-09T12:02:18.696Z,2.85
2022-11-09T12:03:22.444Z,2.57
2022-11-09T12:04:32.088Z,3.26
2022-11-09T12:05:33.470Z,4.27
2022-11-09T12:06:38.557Z,2.92
2022-11-09T12:07:41.680Z,5.11
2022-11-09T12:08:45.062Z,5.79
2022-11-09T12:09:48.764Z,4.30
2022-11-09T12:10:51.863Z,3.30
2022-11-09T12:11:54.715Z,5.63
2022-11-09T12:12:57.686Z,6.18
2022-11-09T12:14:01.585Z,5.53
2022-11-09T12:15:04.733Z,6.66
2022-11-09T12:16:08.146Z,4.15
2022-11-09T12:17:11.333Z,3.68
2022-11-09T12:18:14.321Z,2.98
2022-11-09T12:19:20.456Z,4.54
2022-11-09T12:20:22.920Z,4.02
2022-11-09T12:21:26.524Z,5.52
2022-11-09T12:22:29.596Z,4.66
2022-11-09T12:23:33.091Z,5.01
2022-11-09T12:24:37.080Z,4.98
2022-11-09T12:25:40.163Z,4.66
2022-11-09T12:26:42.941Z,2.66
2022-11-09T12:27:46.216Z,3.41
2022-11-09T12:28:49.195Z,4.58
2022-11-09T12:29:52.581Z,3.74
2022-11-09T12:30:55.870Z,3.86
2022-11-09T12:31:58.993Z,3.52
2022-11-09T12:33:02.326Z,5.50
2022-11-09T12:34:05.418Z,3.38
2022-11-09T12:35:08.697Z,4.35
2022-11-09T12:36:11.406Z,4.08
2022-11-09T12:37:14.560Z,4.95
2022-11-09T12:38:17.423Z,4.63
2022-11-09T12:39:20.738Z,3.17
2022-11-09T12:40:24.715Z,3.74
2022-11-09T12:41:27.992Z,4.08
2022-11-09T12:42:31.386Z,4.27
2022-11-09T12:43:34.877Z,4.08
2022-11-09T12:44:38.159Z,5.01
2022-11-09T12:45:41.330Z,3.42
2022-11-09T12:46:46.033Z,3.97
2022-11-09T12:47:50.742Z,4.56
2022-11-09T12:48:53.438Z,4.69
2022-11-09T12:49:56.218Z,6.22
2022-11-09T12:50:59.296Z,5.92
2022-11-09T12:52:02.783Z,6.08
2022-11-09T12:53:05.973Z,7.15
2022-11-09T12:54:09.554Z,4.84
2022-11-09T12:55:12.425Z,5.01
2022-11-09T12:56:15.512Z,4.93
2022-11-09T12:57:18.596Z,5.07
2022-11-09T12:58:22.085Z,4.42
2022-11-09T12:59:25.461Z,4.76
2022-11-09T13:00:28.447Z,4.92
2022-11-09T13:01:31.669Z,5.23
2022-11-09T13:02:34.599Z,5.01
2022-11-09T13:03:37.693Z,6.60
2022-11-09T13:04:40.454Z,5.20
2022-11-09T13:05:46.450Z,4.85
2022-11-09T13:06:49.670Z,4.39
2022-11-09T13:07:52.792Z,4.95
2022-11-09T13:08:55.976Z,7.20
2022-11-09T13:09:59.124Z,6.62
2022-11-09T13:11:02.006Z,5.79
2022-11-09T13:12:05.291Z,4.81
2022-11-09T13:13:08.052Z,5.27
2022-11-09T13:14:11.031Z,8.37
2022-11-09T13:15:13.904Z,3.52
2022-11-09T13:16:17.926Z,4.21
2022-11-09T13:17:21.517Z,5.63
2022-11-09T13:18:24.695Z,5.18
2022-11-09T13:19:27.761Z,6.50
2022-11-09T13:20:53.542Z,6.45
2022-11-09T13:21:35.349Z,6.19
2022-11-09T13:22:38.762Z,4.61
2022-11-09T13:23:59.836Z,4.06
2022-11-09T13:24:45.928Z,3.79
2022-11-09T13:25:48.901Z,3.88
2022-11-09T13:26:52.190Z,4.35
2022-11-09T13:27:55.571Z,5.81
2022-11-09T13:28:58.442Z,6.14
2022-11-09T13:30:01.627Z,4.59
2022-11-09T13:31:04.927Z,4.71
2022-11-09T13:32:07.797Z,5.30
2022-11-09T13:33:11.085Z,4.31
2022-11-09T13:34:14.169Z,3.91
2022-11-09T13:35:17.333Z,4.17
2022-11-09T13:36:20.408Z,4.46
2022-11-09T13:37:24.013Z,6.43
2022-11-09T13:38:26.576Z,4.39
2022-11-09T13:39:31.196Z,5.19
2022-11-09T13:40:34.571Z,5.39
2022-11-09T13:41:37.346Z,5.48
2022-11-09T13:42:40.117Z,5.15
2022-11-09T13:43:43.211Z,3.58
2022-11-09T13:44:48.250Z,4.41
2022-11-09T13:45:50.907Z,4.53
2022-11-09T13:46:54.395Z,4.30
2022-11-09T13:47:57.472Z,5.86
2022-11-09T13:49:00.439Z,4.21
2022-11-09T13:50:03.325Z,4.52
2022-11-09T13:51:06.593Z,3.85
2022-11-09T13:52:09.886Z,5.14
2022-11-09T13:53:12.870Z,4.50
2022-11-09T13:54:16.246Z,4.08
2022-11-09T13:55:19.219Z,2.70
2022-11-09T13:56:27.018Z,4.56
2022-11-09T13:57:26.814Z,6.26
2022-11-09T13:58:30.002Z,5.62
2022-11-09T13:59:32.870Z,4.53
2022-11-09T14:00:36.167Z,4.08
2022-11-09T14:01:38.970Z,7.72
2022-11-09T14:02:42.316Z,5.35
2022-11-09T14:03:45.803Z,4.30
2022-11-09T14:04:50.216Z,3.86
2022-11-09T14:05:53.313Z,3.78
2022-11-09T14:06:56.423Z,4.38
2022-11-09T14:07:59.383Z,5.25
2022-11-09T14:09:02.134Z,3.39
2022-11-09T14:10:04.890Z,3.82
2022-11-09T14:11:07.571Z,5.64
2022-11-09T14:12:10.341Z,6.14
2022-11-09T14:13:13.321Z,4.53
2022-11-09T14:14:16.181Z,4.75
2022-11-09T14:15:18.861Z,3.82
2022-11-09T14:16:21.837Z,3.99
2022-11-09T14:17:24.816Z,4.67
2022-11-09T14:18:27.794Z,3.31
2022-11-09T14:19:32.405Z,5.25
2022-11-09T14:20:35.007Z,4.09
2022-11-09T14:21:38.154Z,2.96
2022-11-09T14:22:41.344Z,4.16
2022-11-09T14:23:48.218Z,6.26
2022-11-09T14:24:51.183Z,5.54
2022-11-09T14:25:54.885Z,3.69
2022-11-09T14:27:01.137Z,5.97
2022-11-09T14:28:04.107Z,6.26
2022-11-09T14:29:09.566Z,4.54
2022-11-09T14:30:12.737Z,6.17
2022-11-09T14:31:18.472Z,4.76
2022-11-09T14:32:24.937Z,4.74
2022-11-09T14:33:28.115Z,5.11
2022-11-09T14:34:31.193Z,3.98
2022-11-09T14:35:33.970Z,3.63
2022-11-09T14:36:36.766Z,5.15
2022-11-09T14:37:44.343Z,6.14
2022-11-09T14:38:48.055Z,3.58
2022-11-09T14:39:51.501Z,3.98
2022-11-09T14:40:55.196Z,4.28
2022-11-09T14:42:04.730Z,5.85
2022-11-09T14:43:08.643Z,5.95
2022-11-09T14:44:11.396Z,6.66
2022-11-09T14:45:14.427Z,5.13
2022-11-09T14:46:17.663Z,5.27
2022-11-09T14:47:20.527Z,5.58
2022-11-09T14:48:24.715Z,4.72
2022-11-09T14:49:34.588Z,6.48
2022-11-09T14:50:40.765Z,6.32
2022-11-09T14:51:46.712Z,5.80
2022-11-09T14:52:57.312Z,5.86
2022-11-09T14:54:00.250Z,4.74
2022-11-09T14:55:06.282Z,5.17
2022-11-09T14:56:09.652Z,7.11
2022-11-09T14:57:12.456Z,4.82
2022-11-09T14:58:19.721Z,3.87
2022-11-09T14:59:22.668Z,5.30
2022-11-09T15:00:25.352Z,7.05
2022-11-09T15:01:27.993Z,5.06
2022-11-09T15:02:33.851Z,5.30
2022-11-09T15:03:38.013Z,7.50
2022-11-09T15:04:49.690Z,6.47
2022-11-09T15:05:58.716Z,7.04
2022-11-09T15:07:07.578Z,6.71
2022-11-09T15:08:10.191Z,5.84
2022-11-09T15:09:12.500Z,4.22
2022-11-09T15:10:14.773Z,5.12
2022-11-09T15:11:19.940Z,4.42
2022-11-09T15:14:06.075Z,5.50
2022-11-09T15:15:08.376Z,5.05
2022-11-09T15:16:19.658Z,3.35
2022-11-09T15:17:22.211Z,5.69
2022-11-09T15:18:27.930Z,6.85
2022-11-09T15:19:30.245Z,6.69
2022-11-09T15:20:40.774Z,4.52
2022-11-09T15:23:18.144Z,5.23
2022-11-09T15:24:20.622Z,4.06
2022-11-09T15:25:24.544Z,3.92
2022-11-09T15:26:27.139Z,4.79
2022-11-09T15:27:45.530Z,3.50
2022-11-09T15:31:32.191Z,5.11
2022-11-09T15:32:37.206Z,4.65
2022-11-09T15:33:40.924Z,6.58
2022-11-09T15:34:43.230Z,4.82
2022-11-09T15:35:46.624Z,5.64
2022-11-09T15:36:52.011Z,6.34
2022-11-09T15:38:11.546Z,6.62
2022-11-09T15:40:41.758Z,5.95
2022-11-09T15:42:01.002Z,5.58
2022-11-09T15:43:03.366Z,6.39
2022-11-09T15:44:10.188Z,6.67
2022-11-09T15:45:13.897Z,6.83
2022-11-09T15:47:39.439Z,6.38
2022-11-09T15:48:46.283Z,4.39
2022-11-09T15:51:12.566Z,5.15
2022-11-09T15:52:14.832Z,6.57
2022-11-09T15:53:17.122Z,5.21
2022-11-09T15:54:34.561Z,4.86
2022-11-09T15:55:41.646Z,4.81
2022-11-09T15:58:04.833Z,4.09
2022-11-09T16:00:38.006Z,5.92
2022-11-09T16:01:58.007Z,5.42
2022-11-09T16:03:07.316Z,7.81
2022-11-09T16:05:31.475Z,6.83
2022-11-09T16:06:36.001Z,7.62
2022-11-09T16:09:08.241Z,6.92
2022-11-09T16:10:22.504Z,7.17
2022-11-09T16:12:49.029Z,8.26
2022-11-09T16:13:51.623Z,5.35
2022-11-09T16:17:41.322Z,5.35
2022-11-09T16:20:23.910Z,6.95
2022-11-09T16:21:44.472Z,7.82
2022-11-09T16:22:50.834Z,5.64
2022-11-09T16:25:13.688Z,6.40
2022-11-09T16:26:28.138Z,4.10
2022-11-09T16:30:11.388Z,4.63
2022-11-09T16:31:48.291Z,6.20
2022-11-09T16:32:33.260Z,6.50
2022-11-09T16:33:35.814Z,9.67
2022-11-09T16:34:38.539Z,8.18
2022-11-09T16:35:50.147Z,5.23
2022-11-09T16:38:21.714Z,6.32
2022-11-09T16:42:15.712Z,5.90
2022-11-09T16:43:29.774Z,7.26
2022-11-09T16:46:05.591Z,6.33
2022-11-09T16:47:11.543Z,6.95
2022-11-09T16:51:13.007Z,7.66
2022-11-09T16:52:20.926Z,5.52
2022-11-09T16:56:16.344Z,5.30
2022-11-09T16:57:18.808Z,5.70
2022-11-09T17:01:13.054Z,6.14
2022-11-09T17:04:52.070Z,5.81
2022-11-09T17:12:54.917Z,8.18
2022-11-09T17:14:18.419Z,5.36
2022-11-09T17:23:25.487Z,5.70
2022-11-09T17:27:26.279Z,7.55
2022-11-09T17:28:28.748Z,6.12
2022-11-09T17:29:31.178Z,6.78
2022-11-09T17:30:33.783Z,6.04
2022-11-09T17:31:46.473Z,6.80
2022-11-09T17:32:51.586Z,6.59
2022-11-09T17:34:04.283Z,8.72
2022-11-09T17:36:56.754Z,7.50
2022-11-09T17:39:05.242Z,6.92
2022-11-09T17:40:16.392Z,5.54
2022-11-09T17:41:18.701Z,5.90
2022-11-09T17:42:21.041Z,6.98
2022-11-09T17:43:23.586Z,7.14
2022-11-09T17:44:34.304Z,5.53
2022-11-09T17:45:40.733Z,7.39
2022-11-09T17:46:44.132Z,5.68
2022-11-09T17:47:46.682Z,4.83
2022-11-09T17:50:14.335Z,5.70
2022-11-09T17:51:22.256Z,5.62
2022-11-09T17:52:28.288Z,4.69
2022-11-09T17:53:34.192Z,4.50
2022-11-09T17:54:37.403Z,5.84
2022-11-09T17:55:41.272Z,7.39
2022-11-09T17:56:44.486Z,5.71
2022-11-09T17:57:47.236Z,4.82
2022-11-09T17:58:52.159Z,7.90
2022-11-09T17:59:54.797Z,5.96
2022-11-09T18:00:57.415Z,5.65
2022-11-09T18:02:00.060Z,4.16
2022-11-09T18:03:06.830Z,6.87